Archival Weather

Norman Y Mineta San Jose Intl

San Jose, California (KSJC)

Report from: Saturday, February 24, 2024 3:53 PM PST
Current time: Friday, June 14, 2024 5:48 AM PDT

Current weather – Weather history – Daily summaries
Weather forecast

Temperature23.3°C (73.9°F)
Dew point6.7°C (44.1°F)
Winds 6 kts (3.1 m/s, 6.9 mph) Northwest (320°)
Visibility10 mi. (16.1 km)
Clouds Few clouds 5,000 ft. (1,524 m)
Few clouds 8,500 ft. (2,591 m)
Altimeter29.99 in.Hg (1016 mB)
Relative humidity34 %
Density altitude1,040 ft. (317 m)
Sea-level pressure101.5 kPa (1015 mB, 29.98 in.Hg)
Max temp last 6 hours23.9°C (75.0°F)
Min temp last 6 hours16.1°C (61.0°F)
Remarks Automated weather observing station with precipitation discriminator
Pressure falling more slowly
Flight conditions Visual Meteorological Conditions
Raw dataKSJC 242353Z 32006KT 10SM FEW050 FEW085 23/07 A2999 RMK AO2 SLP153 T02330067 10239 20161 56014
An error has occurred. This application may no longer respond until reloaded. Reload 🗙